createdAt,value
2023-01-21T00:01:58.851Z,31.05
2023-01-21T00:04:34.491Z,32.80
2023-01-21T00:07:08.780Z,28.42
2023-01-21T00:09:42.173Z,25.70
2023-01-21T00:12:16.386Z,30.63
2023-01-21T00:14:50.092Z,30.80
2023-01-21T00:17:25.191Z,29.25
2023-01-21T00:19:58.343Z,32.13
2023-01-21T00:22:31.688Z,29.90
2023-01-21T00:25:05.315Z,34.58
2023-01-21T00:27:38.576Z,31.27
2023-01-21T00:30:12.963Z,30.92
2023-01-21T00:32:47.716Z,29.60
2023-01-21T00:35:20.870Z,34.70
2023-01-21T00:37:54.379Z,30.60
2023-01-21T00:40:27.779Z,28.88
2023-01-21T00:43:01.256Z,32.92
2023-01-21T00:45:34.717Z,30.88
2023-01-21T00:48:24.199Z,32.63
2023-01-21T00:51:00.714Z,33.70
2023-01-21T00:53:36.280Z,34.42
2023-01-21T00:56:11.205Z,32.47
2023-01-21T00:58:45.120Z,28.45
2023-01-21T01:01:20.719Z,28.92
2023-01-21T01:03:55.281Z,29.75
2023-01-21T01:06:28.688Z,28.80
2023-01-21T01:09:02.044Z,27.38
2023-01-21T01:11:35.340Z,30.90
2023-01-21T01:14:09.587Z,24.73
2023-01-21T01:16:44.448Z,19.15
2023-01-21T01:19:19.509Z,11.77
2023-01-21T01:21:52.711Z,12.52
2023-01-21T01:24:26.058Z,9.63
2023-01-21T01:26:59.814Z,10.35
2023-01-21T01:29:33.391Z,9.50
2023-01-21T01:32:07.133Z,12.63
2023-01-21T01:34:41.754Z,9.48
2023-01-21T01:37:16.892Z,14.88
2023-01-21T01:39:50.167Z,10.23
2023-01-21T01:42:23.799Z,8.60
2023-01-21T01:45:00.358Z,11.65
2023-01-21T01:47:38.646Z,8.27
2023-01-21T01:50:19.116Z,13.15
2023-01-21T01:52:52.316Z,17.27
2023-01-21T01:55:25.758Z,20.73
2023-01-21T01:58:00.039Z,21.75
2023-01-21T02:00:33.549Z,21.80
2023-01-21T02:03:25.048Z,16.73
2023-01-21T02:06:00.238Z,13.23
2023-01-21T02:08:36.377Z,18.15
2023-01-21T02:11:13.288Z,17.67
2023-01-21T02:13:51.824Z,21.35
2023-01-21T02:16:50.405Z,18.02
2023-01-21T02:19:44.101Z,11.07
2023-01-21T02:22:28.976Z,17.90
2023-01-21T02:25:45.759Z,9.98
2023-01-21T02:29:09.614Z,12.60
2023-01-21T02:32:10.252Z,11.20
2023-01-21T02:34:50.548Z,8.38
2023-01-21T02:37:29.981Z,14.02
2023-01-21T02:40:15.055Z,12.55
2023-01-21T02:42:52.144Z,9.93
2023-01-21T02:45:30.905Z,9.55
2023-01-21T02:48:09.012Z,10.55
2023-01-21T02:50:46.292Z,12.73
2023-01-21T02:53:26.169Z,13.05
2023-01-21T02:56:06.607Z,10.18
2023-01-21T02:58:47.548Z,16.05
2023-01-21T03:01:32.933Z,11.00
2023-01-21T03:04:53.421Z,12.13
2023-01-21T03:07:34.282Z,12.93
2023-01-21T03:10:11.211Z,15.30
2023-01-21T03:12:56.382Z,11.93
2023-01-21T03:15:50.356Z,18.02
2023-01-21T03:18:27.607Z,14.85
2023-01-21T03:21:08.419Z,15.75
2023-01-21T03:23:47.405Z,16.15
2023-01-21T03:26:25.677Z,11.27
2023-01-21T03:29:03.349Z,8.35
2023-01-21T03:31:40.400Z,16.95
2023-01-21T03:34:16.825Z,11.75
2023-01-21T03:36:56.032Z,18.98
2023-01-21T03:39:39.588Z,12.00
2023-01-21T03:42:14.236Z,13.45
2023-01-21T03:44:47.886Z,14.70
2023-01-21T03:50:01.627Z,11.77
2023-01-21T03:52:35.356Z,14.25
2023-01-21T03:55:11.456Z,10.95
2023-01-21T03:57:44.722Z,10.38
2023-01-21T04:00:19.543Z,9.43
2023-01-21T04:02:53.299Z,8.55
2023-01-21T04:05:26.664Z,8.38
2023-01-21T04:07:59.951Z,8.77
2023-01-21T04:10:34.699Z,10.27
2023-01-21T04:13:10.192Z,9.20
2023-01-21T04:15:43.827Z,8.82
2023-01-21T04:18:17.082Z,11.43
2023-01-21T04:20:50.893Z,16.00
2023-01-21T04:25:58.496Z,12.15
2023-01-21T04:28:31.722Z,13.85
2023-01-21T04:31:05.404Z,6.85
2023-01-21T04:33:38.732Z,13.40
2023-01-21T04:36:12.057Z,7.57
2023-01-21T04:38:45.294Z,10.30
2023-01-21T04:41:20.052Z,6.78
2023-01-21T04:43:53.439Z,9.52
2023-01-21T04:46:26.606Z,10.27
2023-01-21T04:48:59.701Z,6.75
2023-01-21T04:51:32.996Z,11.85
2023-01-21T04:54:06.308Z,8.00
2023-01-21T04:56:40.982Z,7.65
2023-01-21T04:59:14.269Z,9.85
2023-01-21T05:01:47.702Z,12.75
2023-01-21T05:04:21.658Z,8.60
2023-01-21T05:06:55.705Z,12.35
2023-01-21T05:09:28.911Z,16.80
2023-01-21T05:14:37.771Z,17.20
2023-01-21T05:17:11.494Z,11.98
2023-01-21T05:22:18.466Z,15.20
2023-01-21T05:24:52.021Z,17.77
2023-01-21T05:27:27.129Z,17.90
2023-01-21T05:30:00.819Z,23.00
2023-01-21T05:35:09.920Z,11.38
2023-01-21T05:37:43.110Z,10.95
2023-01-21T05:40:17.558Z,12.07
2023-01-21T05:42:52.373Z,15.68
2023-01-21T05:45:25.962Z,11.77
2023-01-21T05:47:59.447Z,8.57
2023-01-21T05:50:32.970Z,12.95
2023-01-21T05:53:06.476Z,5.97
2023-01-21T05:55:39.966Z,9.95
2023-01-21T05:58:14.612Z,10.80
2023-01-21T06:00:48.726Z,16.15
2023-01-21T06:05:55.500Z,15.10
2023-01-21T06:08:28.979Z,17.40
2023-01-21T06:11:02.277Z,22.45
2023-01-21T06:13:51.564Z,26.17
2023-01-21T06:16:24.907Z,36.45
2023-01-21T06:18:58.350Z,27.10
2023-01-21T06:21:31.694Z,31.98
2023-01-21T06:24:05.282Z,25.75
2023-01-21T06:26:38.554Z,22.48
2023-01-21T06:29:13.788Z,18.63
2023-01-21T06:31:47.358Z,16.30
2023-01-21T06:34:21.387Z,28.05
2023-01-21T06:36:54.789Z,25.73
2023-01-21T06:39:28.088Z,25.27
2023-01-21T06:42:01.503Z,26.20
2023-01-21T06:44:36.132Z,19.50
2023-01-21T06:47:09.473Z,19.92
2023-01-21T06:49:43.437Z,19.08
2023-01-21T06:52:16.740Z,25.27
2023-01-21T06:54:50.408Z,19.00
2023-01-21T06:57:24.889Z,22.23
2023-01-21T06:59:59.494Z,18.83
2023-01-21T07:02:32.827Z,16.73
2023-01-21T07:05:06.910Z,17.83
2023-01-21T07:07:40.408Z,18.58
2023-01-21T07:10:13.750Z,16.73
2023-01-21T07:12:46.919Z,19.95
2023-01-21T07:15:21.606Z,14.25
2023-01-21T07:17:54.818Z,23.85
2023-01-21T07:20:28.014Z,15.45
2023-01-21T07:23:01.211Z,19.60
2023-01-21T07:25:36.171Z,18.88
2023-01-21T07:28:09.362Z,36.13
2023-01-21T07:30:44.161Z,28.58
2023-01-21T07:33:17.443Z,32.50
2023-01-21T07:35:51.181Z,33.22
2023-01-21T07:38:26.038Z,26.65
2023-01-21T07:40:59.309Z,21.02
2023-01-21T07:43:32.515Z,21.88
2023-01-21T07:46:07.292Z,17.85
2023-01-21T07:48:40.416Z,17.52
2023-01-21T07:51:13.997Z,12.10
2023-01-21T07:53:47.366Z,13.90
2023-01-21T07:56:20.905Z,12.82
2023-01-21T07:58:54.947Z,24.30
2023-01-21T08:01:31.480Z,11.60
2023-01-21T08:04:04.863Z,10.88
2023-01-21T08:06:41.497Z,12.75
2023-01-21T08:09:14.961Z,12.35
2023-01-21T08:11:49.376Z,12.82
2023-01-21T08:14:23.080Z,7.72
2023-01-21T08:22:05.801Z,25.98
2023-01-21T08:24:38.950Z,49.13
2023-01-21T08:27:12.316Z,39.47
2023-01-21T08:29:46.944Z,20.88
2023-01-21T08:32:21.537Z,10.75
2023-01-21T08:34:54.806Z,15.20
2023-01-21T08:37:28.095Z,12.32
2023-01-21T08:40:01.361Z,10.07
2023-01-21T08:42:34.710Z,10.35
2023-01-21T08:45:08.932Z,8.85
2023-01-21T08:47:43.533Z,11.60
2023-01-21T08:50:17.488Z,13.77
2023-01-21T08:52:54.564Z,6.43
2023-01-21T08:55:28.256Z,10.10
2023-01-21T08:58:03.553Z,22.05
2023-01-21T09:00:37.087Z,16.88
2023-01-21T09:03:13.339Z,44.10
2023-01-21T09:05:46.651Z,44.60
2023-01-21T09:08:19.895Z,31.95
2023-01-21T09:11:03.699Z,23.27
2023-01-21T09:13:43.231Z,28.35
2023-01-21T09:16:18.501Z,15.65
2023-01-21T09:18:53.393Z,12.02
2023-01-21T09:21:27.111Z,10.90
2023-01-21T09:24:00.414Z,14.63
2023-01-21T09:26:33.661Z,10.20
2023-01-21T09:29:06.932Z,12.02
2023-01-21T09:31:40.297Z,16.50
2023-01-21T09:34:15.098Z,7.40
2023-01-21T09:36:48.351Z,6.70
2023-01-21T09:39:21.635Z,10.55
2023-01-21T09:41:58.192Z,8.88
2023-01-21T09:44:36.472Z,11.07
2023-01-21T09:47:19.220Z,19.40
2023-01-21T09:49:57.107Z,12.23
2023-01-21T09:52:34.460Z,18.25
2023-01-21T09:55:16.203Z,32.50
2023-01-21T09:58:14.713Z,27.98
2023-01-21T10:00:53.691Z,15.90
2023-01-21T10:03:34.148Z,26.67
2023-01-21T10:06:35.182Z,24.25
2023-01-21T10:09:36.605Z,16.55
2023-01-21T10:12:35.547Z,19.58
2023-01-21T10:15:34.883Z,18.45
2023-01-21T10:18:12.248Z,27.52
2023-01-21T10:20:51.825Z,10.55
2023-01-21T10:23:29.902Z,11.85
2023-01-21T10:26:09.428Z,18.77
2023-01-21T10:28:48.408Z,10.02
2023-01-21T10:31:24.500Z,11.20
2023-01-21T10:33:57.934Z,13.45
2023-01-21T10:37:01.769Z,17.63
2023-01-21T10:39:45.310Z,16.80
2023-01-21T10:42:35.914Z,10.57
2023-01-21T10:45:19.018Z,18.63
2023-01-21T10:48:03.132Z,14.50
2023-01-21T10:50:48.040Z,26.42
2023-01-21T10:53:28.486Z,15.35
2023-01-21T10:56:21.176Z,10.93
2023-01-21T10:58:58.759Z,13.15
2023-01-21T11:01:36.617Z,17.23
2023-01-21T11:04:14.396Z,16.73
2023-01-21T11:06:53.683Z,20.38
2023-01-21T11:09:29.648Z,24.85
2023-01-21T11:12:05.982Z,19.70
2023-01-21T11:14:40.038Z,32.50
2023-01-21T11:17:14.354Z,33.72
2023-01-21T11:19:59.625Z,29.42
2023-01-21T11:22:34.009Z,22.48
2023-01-21T11:25:26.298Z,31.27
2023-01-21T11:28:01.224Z,27.00
2023-01-21T11:30:50.012Z,25.05
2023-01-21T11:33:35.650Z,29.58
2023-01-21T11:36:15.286Z,28.85
2023-01-21T11:39:01.137Z,41.25
2023-01-21T11:41:34.891Z,33.85
2023-01-21T11:44:18.758Z,33.05
2023-01-21T11:46:53.301Z,28.02
2023-01-21T11:49:29.990Z,26.10
2023-01-21T11:52:18.711Z,22.90
2023-01-21T11:54:51.850Z,27.80
2023-01-21T11:57:33.877Z,20.27
2023-01-21T12:00:19.951Z,23.67
2023-01-21T12:02:57.176Z,17.73
2023-01-21T12:05:34.110Z,19.67
2023-01-21T12:08:08.773Z,14.57
2023-01-21T12:10:45.165Z,8.90
2023-01-21T12:13:21.221Z,17.77
2023-01-21T12:16:26.564Z,14.90
2023-01-21T12:19:21.452Z,9.90
2023-01-21T12:22:07.905Z,10.38
2023-01-21T12:24:55.417Z,10.55
2023-01-21T12:27:36.150Z,10.65
2023-01-21T12:30:18.148Z,16.65
2023-01-21T12:32:58.486Z,9.93
2023-01-21T12:35:37.316Z,10.95
2023-01-21T12:38:16.127Z,12.18
2023-01-21T12:40:56.953Z,12.35
2023-01-21T12:43:36.331Z,22.58
2023-01-21T12:46:16.929Z,12.63
2023-01-21T12:48:55.807Z,12.00
2023-01-21T12:51:31.814Z,9.93
2023-01-21T12:54:19.364Z,13.57
2023-01-21T12:56:58.803Z,13.77
2023-01-21T12:59:39.688Z,10.95
2023-01-21T13:02:33.499Z,13.02
2023-01-21T13:05:19.002Z,10.18
2023-01-21T13:08:30.690Z,10.68
2023-01-21T13:11:23.563Z,12.05
2023-01-21T13:14:20.492Z,13.65
2023-01-21T13:17:12.550Z,13.55
2023-01-21T13:19:45.890Z,15.43
2023-01-21T13:22:43.705Z,14.48
2023-01-21T13:28:18.785Z,29.45
2023-01-21T13:31:08.641Z,22.65
2023-01-21T13:34:05.846Z,14.70
2023-01-21T13:37:02.869Z,35.78
2023-01-21T13:40:00.155Z,43.30
2023-01-21T13:42:44.306Z,30.58
2023-01-21T13:45:36.538Z,33.30
2023-01-21T13:48:34.259Z,23.75
2023-01-21T13:51:34.078Z,26.48
2023-01-21T13:54:43.775Z,21.92
2023-01-21T13:57:58.729Z,15.02
2023-01-21T14:00:55.624Z,18.55
2023-01-21T14:03:49.305Z,37.50
2023-01-21T14:06:39.957Z,51.70
2023-01-21T14:09:34.868Z,38.47
2023-01-21T14:12:35.987Z,30.23
2023-01-21T14:15:44.933Z,17.60
2023-01-21T14:18:48.591Z,17.80
2023-01-21T14:21:41.006Z,9.65
2023-01-21T14:24:44.175Z,10.15
2023-01-21T14:27:28.980Z,13.15
2023-01-21T14:30:20.037Z,32.97
2023-01-21T14:33:14.188Z,23.35
2023-01-21T14:36:09.299Z,19.15
2023-01-21T14:39:05.514Z,17.33
2023-01-21T14:42:02.987Z,17.50
2023-01-21T14:45:04.694Z,20.65
2023-01-21T14:47:50.641Z,23.85
2023-01-21T14:50:48.318Z,44.72
2023-01-21T14:53:25.595Z,30.30
2023-01-21T14:56:24.429Z,24.27
2023-01-21T14:59:33.231Z,30.40
2023-01-21T15:02:28.579Z,25.88
2023-01-21T15:05:05.050Z,30.23
2023-01-21T15:08:08.208Z,30.10
2023-01-21T15:10:43.184Z,26.40
2023-01-21T15:13:29.669Z,29.60
2023-01-21T15:16:16.367Z,22.60
2023-01-21T15:19:24.363Z,21.63
2023-01-21T15:22:39.816Z,24.80
2023-01-21T15:25:21.259Z,22.98
2023-01-21T15:28:44.244Z,22.55
2023-01-21T15:31:43.472Z,13.52
2023-01-21T15:34:35.019Z,27.20
2023-01-21T15:37:22.416Z,31.60
2023-01-21T15:40:19.322Z,34.70
2023-01-21T15:43:20.539Z,18.55
2023-01-21T15:46:23.858Z,29.83
2023-01-21T15:49:26.253Z,32.40
2023-01-21T15:52:29.434Z,26.60
2023-01-21T15:55:33.860Z,19.88
2023-01-21T15:58:29.684Z,19.70
2023-01-21T16:01:27.047Z,26.20
2023-01-21T16:04:29.560Z,27.38
2023-01-21T16:07:22.060Z,30.08
2023-01-21T16:10:20.231Z,28.02
2023-01-21T16:13:17.618Z,69.15
2023-01-21T16:16:14.733Z,90.53
2023-01-21T16:18:59.294Z,53.85
2023-01-21T16:21:52.184Z,36.88
2023-01-21T16:24:28.882Z,34.88
2023-01-21T16:27:18.424Z,19.20
2023-01-21T16:30:03.243Z,29.70
2023-01-21T16:32:44.323Z,28.98
2023-01-21T16:35:43.109Z,35.50
2023-01-21T16:38:30.741Z,22.95
2023-01-21T16:41:24.217Z,20.20
2023-01-21T16:44:17.538Z,14.23
2023-01-21T16:47:05.587Z,13.43
2023-01-21T16:49:54.937Z,27.25
2023-01-21T16:52:28.471Z,24.30
2023-01-21T16:55:01.838Z,20.17
2023-01-21T16:57:40.285Z,16.92
2023-01-21T17:00:24.478Z,19.63
2023-01-21T17:03:13.083Z,12.68
2023-01-21T17:06:06.701Z,16.20
2023-01-21T17:08:59.950Z,17.02
2023-01-21T17:11:48.413Z,25.02
2023-01-21T17:14:31.965Z,20.15
2023-01-21T17:17:24.087Z,21.92
2023-01-21T17:20:35.557Z,23.95
2023-01-21T17:23:19.273Z,12.80
2023-01-21T17:25:56.366Z,15.85
2023-01-21T17:28:47.916Z,22.40
2023-01-21T17:31:28.618Z,20.40
2023-01-21T17:34:22.947Z,19.92
2023-01-21T17:37:43.067Z,17.45
2023-01-21T17:40:32.995Z,24.00
2023-01-21T17:43:23.535Z,20.67
2023-01-21T17:46:20.378Z,26.83
2023-01-21T17:49:14.833Z,22.55
2023-01-21T17:52:03.088Z,19.80
2023-01-21T17:54:50.306Z,21.83
2023-01-21T17:57:39.741Z,21.45
2023-01-21T18:00:35.665Z,29.15
2023-01-21T18:03:09.544Z,17.70
2023-01-21T18:05:49.215Z,23.77
2023-01-21T18:08:37.239Z,21.33
2023-01-21T18:11:25.346Z,20.02
2023-01-21T18:14:18.821Z,21.02
2023-01-21T18:17:10.458Z,24.38
2023-01-21T18:19:58.079Z,18.75
2023-01-21T18:22:47.485Z,15.23
2023-01-21T18:25:35.581Z,18.00
2023-01-21T18:28:26.685Z,16.00
2023-01-21T18:31:16.763Z,10.77
2023-01-21T18:34:05.501Z,7.47
2023-01-21T18:36:54.577Z,14.13
2023-01-21T18:39:42.649Z,18.58
2023-01-21T18:42:24.577Z,18.00
2023-01-21T18:45:18.004Z,15.50
2023-01-21T18:47:59.597Z,12.23
2023-01-21T18:50:48.038Z,20.02
2023-01-21T18:53:34.985Z,15.40
2023-01-21T18:56:15.883Z,18.45
2023-01-21T18:59:04.273Z,23.73
2023-01-21T19:01:50.026Z,39.38
2023-01-21T19:04:25.283Z,30.83
2023-01-21T19:07:16.640Z,27.55
2023-01-21T19:09:58.667Z,30.27
2023-01-21T19:12:49.769Z,39.30
2023-01-21T19:15:38.940Z,32.90
2023-01-21T19:18:14.726Z,23.13
2023-01-21T19:20:58.606Z,28.08
2023-01-21T19:23:47.887Z,36.55
2023-01-21T19:26:37.353Z,32.70
2023-01-21T19:29:29.158Z,28.60
2023-01-21T19:32:15.022Z,35.63
2023-01-21T19:40:31.348Z,47.88
2023-01-21T19:43:17.233Z,55.58
2023-01-21T19:46:12.176Z,70.65
2023-01-21T19:48:55.571Z,60.60
2023-01-21T19:51:39.505Z,44.85
2023-01-21T19:54:30.003Z,44.55
2023-01-21T19:57:19.752Z,38.63
2023-01-21T19:59:54.718Z,39.75
2023-01-21T20:02:43.720Z,38.10
2023-01-21T20:05:18.076Z,37.63
2023-01-21T20:08:04.994Z,53.47
2023-01-21T20:10:54.953Z,37.65
2023-01-21T20:13:43.764Z,30.42
2023-01-21T20:16:23.945Z,27.42
2023-01-21T20:19:03.393Z,30.77
2023-01-21T20:21:59.649Z,24.15
2023-01-21T20:24:49.337Z,19.35
2023-01-21T20:27:33.599Z,21.23
2023-01-21T20:30:28.241Z,27.60
2023-01-21T20:33:19.206Z,22.00
2023-01-21T20:36:01.669Z,18.02
2023-01-21T20:38:44.445Z,28.13
2023-01-21T20:41:32.715Z,19.77
2023-01-21T20:44:22.246Z,20.65
2023-01-21T20:47:11.875Z,22.92
2023-01-21T20:49:51.411Z,13.43
2023-01-21T20:52:37.903Z,16.30
2023-01-21T20:55:27.379Z,19.60
2023-01-21T20:58:16.517Z,17.60
2023-01-21T21:01:01.945Z,17.10
2023-01-21T21:03:51.195Z,17.67
2023-01-21T21:06:34.891Z,17.45
2023-01-21T21:09:08.468Z,11.60
2023-01-21T21:11:56.516Z,15.32
2023-01-21T21:14:33.442Z,12.75
2023-01-21T21:17:23.056Z,21.40
2023-01-21T21:20:19.725Z,13.35
2023-01-21T21:23:08.897Z,15.80
2023-01-21T21:25:55.542Z,15.65
2023-01-21T21:28:35.070Z,17.25
2023-01-21T21:31:19.255Z,18.77
2023-01-21T21:34:07.001Z,12.35
2023-01-21T21:36:50.765Z,21.42
2023-01-21T21:39:30.340Z,21.35
2023-01-21T21:42:21.498Z,16.52
2023-01-21T21:44:54.887Z,21.63
2023-01-21T21:47:54.937Z,16.65
2023-01-21T21:50:29.725Z,21.10
2023-01-21T21:53:12.545Z,12.45
2023-01-21T21:55:56.765Z,11.75
2023-01-21T21:58:37.347Z,11.57
2023-01-21T22:01:21.738Z,13.25
2023-01-21T22:03:55.247Z,16.20
2023-01-21T22:06:44.772Z,14.07
2023-01-21T22:09:28.120Z,18.23
2023-01-21T22:12:09.927Z,18.45
2023-01-21T22:14:57.892Z,17.73
2023-01-21T22:17:34.671Z,20.10
2023-01-21T22:20:08.740Z,12.57
2023-01-21T22:22:57.976Z,9.27
2023-01-21T22:25:45.883Z,13.00
2023-01-21T22:28:29.517Z,18.23
2023-01-21T22:31:19.143Z,12.98
2023-01-21T22:34:07.195Z,12.80
2023-01-21T22:36:53.400Z,15.48
2023-01-21T22:39:42.758Z,10.65
2023-01-21T22:42:15.926Z,18.60
2023-01-21T22:44:49.124Z,14.57
2023-01-21T22:47:34.889Z,20.27
2023-01-21T22:50:12.937Z,12.75
2023-01-21T22:53:00.820Z,13.98
2023-01-21T22:55:36.484Z,13.30
2023-01-21T22:58:09.759Z,13.75
2023-01-21T23:00:43.081Z,9.60
2023-01-21T23:03:31.834Z,16.70
2023-01-21T23:06:20.500Z,13.23
2023-01-21T23:09:11.206Z,14.18
2023-01-21T23:11:52.707Z,9.15
2023-01-21T23:14:40.260Z,10.02
2023-01-21T23:17:28.159Z,12.82
2023-01-21T23:20:01.434Z,13.77
2023-01-21T23:22:34.921Z,17.90
2023-01-21T23:25:19.279Z,14.02
2023-01-21T23:28:06.984Z,17.27
2023-01-21T23:30:55.022Z,15.38
2023-01-21T23:33:41.467Z,14.32
2023-01-21T23:36:29.461Z,12.60
2023-01-21T23:39:03.590Z,14.95
2023-01-21T23:41:51.549Z,21.20
2023-01-21T23:44:40.855Z,14.80
2023-01-21T23:47:29.517Z,19.35
2023-01-21T23:50:08.859Z,12.88
2023-01-21T23:52:42.849Z,24.30
2023-01-21T23:55:27.068Z,22.85
2023-01-21T23:58:00.378Z,19.90
